CZFN/ZFN METAR and TAF weather

Enter ICAO airport designator
Station Type Date Time Source
CZFN METAR 2021/07/30 23:00 UTC NOAA

CZFN 302300Z 07002KT 15SM FEW030 SCT160 27/12 A2996 RMK CU2AC2 LAST STFD OBS NEXT 021500 SLP148 DENSITY ALT 1800FT


Station Type Date Time Source
CZFN Decoded METAR 2021/07/30 23:00 UTC NOAA

Fort Norman Airport, Canada (CZFN) 64-55N 125-34W
Jul 30, 2021 - 07:00 PM EDT / 2021.07.30 2300 UTC
Wind: from the ENE (070 degrees) at 2 MPH (2 KT):0
Visibility: 15 mile(s):0
Sky conditions: partly cloudy
Temperature: 80 F (27 C)
Dew Point: 53 F (12 C)
Relative Humidity: 39%
Pressure (altimeter): 29.96 in. Hg (1014 hPa)
ob: CZFN 302300Z 07002KT 15SM FEW030 SCT160 27/12 A2996 RMK CU2AC2 LAST STFD OBS NEXT 021500 SLP148 DENSITY ALT 1800FT
cycle: 23

Station Type Date Time Source
CZFN TAF UTC NOAA

Error!

Example: see airport list